sensor_id;sensor_type;location;lat;lon;timestamp;P1;durP1;ratioP1;P2;durP2;ratioP2
20792;SDS011;10556;-33.662;151.094;2023-04-24T00:04:09;1.90;;;0.47;;
20792;SDS011;10556;-33.662;151.094;2023-04-24T00:09:13;0.80;;;0.40;;
20792;SDS011;10556;-33.662;151.094;2023-04-24T00:14:14;1.70;;;0.20;;
20792;SDS011;10556;-33.662;151.094;2023-04-24T00:19:15;1.70;;;0.30;;
20792;SDS011;10556;-33.662;151.094;2023-04-24T00:24:18;2.93;;;0.90;;
20792;SDS011;10556;-33.662;151.094;2023-04-24T00:29:19;3.13;;;0.83;;
20792;SDS011;10556;-33.662;151.094;2023-04-24T00:34:21;1.87;;;0.40;;
20792;SDS011;10556;-33.662;151.094;2023-04-24T00:39:24;2.00;;;0.90;;
20792;SDS011;10556;-33.662;151.094;2023-04-24T00:44:25;3.70;;;0.50;;
20792;SDS011;10556;-33.662;151.094;2023-04-24T00:49:26;1.10;;;0.30;;
20792;SDS011;10556;-33.662;151.094;2023-04-24T00:54:29;3.83;;;0.40;;
20792;SDS011;10556;-33.662;151.094;2023-04-24T00:59:31;2.30;;;0.40;;
20792;SDS011;10556;-33.662;151.094;2023-04-24T01:04:32;0.93;;;0.40;;
20792;SDS011;10556;-33.662;151.094;2023-04-24T01:09:35;1.57;;;0.50;;
20792;SDS011;10556;-33.662;151.094;2023-04-24T01:14:36;1.80;;;0.30;;
20792;SDS011;10556;-33.662;151.094;2023-04-24T01:19:38;1.30;;;0.30;;
20792;SDS011;10556;-33.662;151.094;2023-04-24T01:24:41;1.63;;;0.30;;
20792;SDS011;10556;-33.662;151.094;2023-04-24T01:29:42;1.70;;;0.30;;
20792;SDS011;10556;-33.662;151.094;2023-04-24T01:34:44;1.17;;;0.40;;
20792;SDS011;10556;-33.662;151.094;2023-04-24T01:39:47;2.40;;;0.27;;
20792;SDS011;10556;-33.662;151.094;2023-04-24T01:44:48;1.90;;;0.63;;
20792;SDS011;10556;-33.662;151.094;2023-04-24T01:49:50;2.37;;;0.40;;
20792;SDS011;10556;-33.662;151.094;2023-04-24T01:54:54;3.03;;;0.40;;
20792;SDS011;10556;-33.662;151.094;2023-04-24T01:59:55;2.33;;;0.50;;
20792;SDS011;10556;-33.662;151.094;2023-04-24T02:04:56;1.03;;;0.30;;
20792;SDS011;10556;-33.662;151.094;2023-04-24T02:10:00;2.00;;;0.30;;
20792;SDS011;10556;-33.662;151.094;2023-04-24T02:15:01;1.93;;;0.70;;
20792;SDS011;10556;-33.662;151.094;2023-04-24T02:20:02;2.33;;;1.00;;
20792;SDS011;10556;-33.662;151.094;2023-04-24T02:25:05;0.80;;;0.30;;
20792;SDS011;10556;-33.662;151.094;2023-04-24T02:30:07;3.00;;;0.53;;
20792;SDS011;10556;-33.662;151.094;2023-04-24T02:35:09;1.00;;;0.30;;
20792;SDS011;10556;-33.662;151.094;2023-04-24T02:40:12;1.43;;;0.20;;
20792;SDS011;10556;-33.662;151.094;2023-04-24T02:45:13;1.17;;;0.30;;
20792;SDS011;10556;-33.662;151.094;2023-04-24T02:50:14;0.53;;;0.20;;
20792;SDS011;10556;-33.662;151.094;2023-04-24T02:55:17;1.43;;;0.40;;
20792;SDS011;10556;-33.662;151.094;2023-04-24T03:00:19;2.23;;;0.50;;
20792;SDS011;10556;-33.662;151.094;2023-04-24T03:05:20;2.10;;;0.30;;
20792;SDS011;10556;-33.662;151.094;2023-04-24T03:10:23;2.10;;;0.33;;
20792;SDS011;10556;-33.662;151.094;2023-04-24T03:15:24;0.70;;;0.23;;
20792;SDS011;10556;-33.662;151.094;2023-04-24T03:20:26;1.63;;;0.67;;
20792;SDS011;10556;-33.662;151.094;2023-04-24T03:25:29;3.17;;;0.70;;
20792;SDS011;10556;-33.662;151.094;2023-04-24T03:30:30;1.63;;;0.33;;
20792;SDS011;10556;-33.662;151.094;2023-04-24T03:35:31;1.00;;;0.30;;
20792;SDS011;10556;-33.662;151.094;2023-04-24T03:40:34;1.30;;;0.50;;
20792;SDS011;10556;-33.662;151.094;2023-04-24T03:45:36;2.63;;;0.70;;
20792;SDS011;10556;-33.662;151.094;2023-04-24T03:50:37;2.10;;;0.60;;
20792;SDS011;10556;-33.662;151.094;2023-04-24T03:55:40;3.20;;;0.60;;
20792;SDS011;10556;-33.662;151.094;2023-04-24T04:00:41;2.83;;;0.50;;
20792;SDS011;10556;-33.662;151.094;2023-04-24T04:05:42;3.37;;;0.73;;
20792;SDS011;10556;-33.662;151.094;2023-04-24T04:10:45;1.90;;;0.53;;
20792;SDS011;10556;-33.662;151.094;2023-04-24T04:15:47;1.80;;;0.40;;
20792;SDS011;10556;-33.662;151.094;2023-04-24T04:20:48;1.60;;;0.70;;
20792;SDS011;10556;-33.662;151.094;2023-04-24T04:25:51;2.97;;;0.60;;
20792;SDS011;10556;-33.662;151.094;2023-04-24T04:30:52;2.40;;;0.80;;
20792;SDS011;10556;-33.662;151.094;2023-04-24T04:35:53;2.20;;;0.60;;
20792;SDS011;10556;-33.662;151.094;2023-04-24T04:40:56;3.77;;;0.73;;
20792;SDS011;10556;-33.662;151.094;2023-04-24T04:45:58;3.67;;;0.70;;
20792;SDS011;10556;-33.662;151.094;2023-04-24T04:50:59;1.87;;;0.80;;
20792;SDS011;10556;-33.662;151.094;2023-04-24T04:56:02;4.33;;;0.73;;
20792;SDS011;10556;-33.662;151.094;2023-04-24T05:01:03;2.57;;;0.60;;
20792;SDS011;10556;-33.662;151.094;2023-04-24T05:06:05;2.43;;;0.80;;
20792;SDS011;10556;-33.662;151.094;2023-04-24T05:11:08;2.37;;;0.60;;
20792;SDS011;10556;-33.662;151.094;2023-04-24T05:16:09;2.17;;;0.70;;
20792;SDS011;10556;-33.662;151.094;2023-04-24T05:21:11;2.50;;;0.60;;
20792;SDS011;10556;-33.662;151.094;2023-04-24T05:26:14;3.63;;;0.80;;
20792;SDS011;10556;-33.662;151.094;2023-04-24T05:31:15;3.57;;;0.67;;
20792;SDS011;10556;-33.662;151.094;2023-04-24T05:36:16;5.87;;;1.13;;
20792;SDS011;10556;-33.662;151.094;2023-04-24T05:41:19;4.13;;;1.20;;
20792;SDS011;10556;-33.662;151.094;2023-04-24T05:46:21;12.63;;;2.03;;
20792;SDS011;10556;-33.662;151.094;2023-04-24T05:51:22;8.73;;;1.63;;
20792;SDS011;10556;-33.662;151.094;2023-04-24T05:56:25;8.60;;;1.53;;
20792;SDS011;10556;-33.662;151.094;2023-04-24T06:01:26;9.87;;;1.47;;
20792;SDS011;10556;-33.662;151.094;2023-04-24T06:06:27;6.20;;;1.20;;
20792;SDS011;10556;-33.662;151.094;2023-04-24T06:11:30;9.03;;;1.47;;
20792;SDS011;10556;-33.662;151.094;2023-04-24T06:16:32;10.17;;;1.90;;
20792;SDS011;10556;-33.662;151.094;2023-04-24T06:21:33;6.23;;;1.63;;
20792;SDS011;10556;-33.662;151.094;2023-04-24T06:26:36;9.40;;;1.93;;
20792;SDS011;10556;-33.662;151.094;2023-04-24T06:31:37;3.17;;;0.90;;
20792;SDS011;10556;-33.662;151.094;2023-04-24T06:36:39;6.97;;;1.30;;
20792;SDS011;10556;-33.662;151.094;2023-04-24T06:41:42;9.83;;;1.40;;
20792;SDS011;10556;-33.662;151.094;2023-04-24T06:46:43;6.53;;;1.17;;
20792;SDS011;10556;-33.662;151.094;2023-04-24T06:51:47;4.37;;;1.00;;
20792;SDS011;10556;-33.662;151.094;2023-04-24T06:56:50;4.73;;;1.10;;
20792;SDS011;10556;-33.662;151.094;2023-04-24T07:01:51;8.87;;;1.17;;
20792;SDS011;10556;-33.662;151.094;2023-04-24T07:06:53;3.77;;;1.00;;
20792;SDS011;10556;-33.662;151.094;2023-04-24T07:11:56;3.60;;;0.70;;
20792;SDS011;10556;-33.662;151.094;2023-04-24T07:16:57;2.93;;;0.67;;
20792;SDS011;10556;-33.662;151.094;2023-04-24T07:21:58;2.47;;;0.70;;
20792;SDS011;10556;-33.662;151.094;2023-04-24T07:27:01;4.27;;;1.20;;
20792;SDS011;10556;-33.662;151.094;2023-04-24T07:32:02;3.20;;;0.70;;
20792;SDS011;10556;-33.662;151.094;2023-04-24T07:37:04;2.60;;;0.60;;
20792;SDS011;10556;-33.662;151.094;2023-04-24T07:42:07;3.17;;;0.63;;
20792;SDS011;10556;-33.662;151.094;2023-04-24T07:47:08;2.73;;;0.50;;
20792;SDS011;10556;-33.662;151.094;2023-04-24T07:52:09;3.47;;;1.07;;
20792;SDS011;10556;-33.662;151.094;2023-04-24T07:57:12;2.23;;;0.60;;
20792;SDS011;10556;-33.662;151.094;2023-04-24T08:02:14;3.90;;;0.80;;
20792;SDS011;10556;-33.662;151.094;2023-04-24T08:07:15;3.93;;;0.83;;
20792;SDS011;10556;-33.662;151.094;2023-04-24T08:12:18;5.27;;;1.13;;
20792;SDS011;10556;-33.662;151.094;2023-04-24T08:17:19;4.33;;;0.67;;
20792;SDS011;10556;-33.662;151.094;2023-04-24T08:22:20;4.80;;;0.73;;
20792;SDS011;10556;-33.662;151.094;2023-04-24T08:27:23;3.07;;;0.63;;
20792;SDS011;10556;-33.662;151.094;2023-04-24T08:32:25;5.40;;;1.13;;
20792;SDS011;10556;-33.662;151.094;2023-04-24T08:37:26;5.30;;;0.80;;
20792;SDS011;10556;-33.662;151.094;2023-04-24T08:42:30;2.53;;;0.70;;
20792;SDS011;10556;-33.662;151.094;2023-04-24T08:47:32;3.13;;;0.70;;
20792;SDS011;10556;-33.662;151.094;2023-04-24T08:52:34;6.37;;;0.90;;
20792;SDS011;10556;-33.662;151.094;2023-04-24T08:57:37;4.30;;;0.80;;
20792;SDS011;10556;-33.662;151.094;2023-04-24T09:02:40;1.43;;;0.60;;
20792;SDS011;10556;-33.662;151.094;2023-04-24T09:07:42;4.40;;;0.97;;
20792;SDS011;10556;-33.662;151.094;2023-04-24T09:12:47;5.60;;;1.07;;
20792;SDS011;10556;-33.662;151.094;2023-04-24T09:17:48;7.03;;;1.50;;
20792;SDS011;10556;-33.662;151.094;2023-04-24T09:22:52;4.03;;;1.10;;
20792;SDS011;10556;-33.662;151.094;2023-04-24T09:27:58;4.77;;;0.80;;
20792;SDS011;10556;-33.662;151.094;2023-04-24T09:33:10;6.97;;;1.10;;
20792;SDS011;10556;-33.662;151.094;2023-04-24T09:38:11;4.10;;;1.00;;
20792;SDS011;10556;-33.662;151.094;2023-04-24T09:43:14;4.47;;;0.80;;
20792;SDS011;10556;-33.662;151.094;2023-04-24T09:48:15;2.97;;;0.93;;
20792;SDS011;10556;-33.662;151.094;2023-04-24T09:53:17;5.90;;;1.00;;
20792;SDS011;10556;-33.662;151.094;2023-04-24T09:58:29;5.37;;;1.20;;
20792;SDS011;10556;-33.662;151.094;2023-04-24T10:03:30;5.20;;;0.90;;
20792;SDS011;10556;-33.662;151.094;2023-04-24T10:08:33;5.87;;;0.90;;
20792;SDS011;10556;-33.662;151.094;2023-04-24T10:13:36;5.57;;;1.20;;
20792;SDS011;10556;-33.662;151.094;2023-04-24T10:18:38;6.00;;;0.87;;
20792;SDS011;10556;-33.662;151.094;2023-04-24T10:23:40;5.63;;;1.03;;
20792;SDS011;10556;-33.662;151.094;2023-04-24T10:28:44;5.50;;;1.10;;
20792;SDS011;10556;-33.662;151.094;2023-04-24T10:33:45;5.83;;;1.43;;
20792;SDS011;10556;-33.662;151.094;2023-04-24T10:38:47;6.43;;;1.40;;
20792;SDS011;10556;-33.662;151.094;2023-04-24T10:43:50;5.93;;;2.03;;
20792;SDS011;10556;-33.662;151.094;2023-04-24T10:49:04;9.67;;;2.03;;
20792;SDS011;10556;-33.662;151.094;2023-04-24T10:54:16;5.17;;;1.23;;
20792;SDS011;10556;-33.662;151.094;2023-04-24T10:59:27;5.07;;;0.90;;
20792;SDS011;10556;-33.662;151.094;2023-04-24T11:04:32;4.60;;;0.90;;
20792;SDS011;10556;-33.662;151.094;2023-04-24T11:09:33;6.73;;;1.50;;
20792;SDS011;10556;-33.662;151.094;2023-04-24T11:19:55;5.70;;;1.40;;
20792;SDS011;10556;-33.662;151.094;2023-04-24T11:25:01;6.53;;;1.07;;
20792;SDS011;10556;-33.662;151.094;2023-04-24T11:30:03;3.30;;;0.90;;
20792;SDS011;10556;-33.662;151.094;2023-04-24T11:35:09;5.07;;;1.43;;
20792;SDS011;10556;-33.662;151.094;2023-04-24T11:40:10;9.37;;;1.60;;
20792;SDS011;10556;-33.662;151.094;2023-04-24T11:45:12;7.53;;;1.83;;
20792;SDS011;10556;-33.662;151.094;2023-04-24T11:50:16;7.23;;;1.77;;
20792;SDS011;10556;-33.662;151.094;2023-04-24T11:55:24;6.60;;;1.53;;
20792;SDS011;10556;-33.662;151.094;2023-04-24T12:00:26;6.70;;;1.37;;
20792;SDS011;10556;-33.662;151.094;2023-04-24T12:05:29;5.53;;;1.43;;
20792;SDS011;10556;-33.662;151.094;2023-04-24T12:10:31;5.40;;;1.23;;
20792;SDS011;10556;-33.662;151.094;2023-04-24T12:15:32;3.40;;;1.00;;
20792;SDS011;10556;-33.662;151.094;2023-04-24T12:20:35;6.63;;;1.33;;
20792;SDS011;10556;-33.662;151.094;2023-04-24T12:25:38;7.03;;;2.33;;
20792;SDS011;10556;-33.662;151.094;2023-04-24T12:30:40;6.87;;;2.30;;
20792;SDS011;10556;-33.662;151.094;2023-04-24T12:35:43;4.47;;;1.70;;
20792;SDS011;10556;-33.662;151.094;2023-04-24T12:40:45;7.60;;;1.80;;
20792;SDS011;10556;-33.662;151.094;2023-04-24T12:45:47;6.70;;;1.90;;
20792;SDS011;10556;-33.662;151.094;2023-04-24T12:50:50;4.67;;;1.33;;
20792;SDS011;10556;-33.662;151.094;2023-04-24T12:55:51;6.87;;;1.40;;
20792;SDS011;10556;-33.662;151.094;2023-04-24T13:00:53;6.67;;;1.30;;
20792;SDS011;10556;-33.662;151.094;2023-04-24T13:05:56;9.07;;;1.50;;
20792;SDS011;10556;-33.662;151.094;2023-04-24T13:10:57;7.43;;;1.30;;
20792;SDS011;10556;-33.662;151.094;2023-04-24T13:15:58;6.07;;;1.40;;
20792;SDS011;10556;-33.662;151.094;2023-04-24T13:21:01;4.10;;;1.10;;
20792;SDS011;10556;-33.662;151.094;2023-04-24T13:26:02;3.80;;;1.07;;
20792;SDS011;10556;-33.662;151.094;2023-04-24T13:31:04;6.70;;;1.03;;
20792;SDS011;10556;-33.662;151.094;2023-04-24T13:36:07;7.83;;;1.40;;
20792;SDS011;10556;-33.662;151.094;2023-04-24T13:41:08;6.63;;;1.27;;
20792;SDS011;10556;-33.662;151.094;2023-04-24T13:46:09;7.27;;;1.30;;
20792;SDS011;10556;-33.662;151.094;2023-04-24T13:51:13;7.33;;;1.20;;
20792;SDS011;10556;-33.662;151.094;2023-04-24T13:56:14;5.40;;;1.20;;
20792;SDS011;10556;-33.662;151.094;2023-04-24T14:01:15;1.80;;;0.57;;
20792;SDS011;10556;-33.662;151.094;2023-04-24T14:06:18;2.10;;;0.80;;
20792;SDS011;10556;-33.662;151.094;2023-04-24T14:11:19;1.07;;;0.40;;
20792;SDS011;10556;-33.662;151.094;2023-04-24T14:16:21;1.23;;;0.47;;
20792;SDS011;10556;-33.662;151.094;2023-04-24T14:21:24;3.70;;;0.87;;
20792;SDS011;10556;-33.662;151.094;2023-04-24T14:26:25;5.00;;;0.90;;
20792;SDS011;10556;-33.662;151.094;2023-04-24T14:31:27;5.33;;;1.10;;
20792;SDS011;10556;-33.662;151.094;2023-04-24T14:36:30;3.87;;;1.10;;
20792;SDS011;10556;-33.662;151.094;2023-04-24T14:41:31;0.87;;;0.43;;
20792;SDS011;10556;-33.662;151.094;2023-04-24T14:46:32;3.50;;;0.93;;
20792;SDS011;10556;-33.662;151.094;2023-04-24T14:51:35;6.37;;;0.90;;
20792;SDS011;10556;-33.662;151.094;2023-04-24T14:56:37;5.77;;;1.47;;
20792;SDS011;10556;-33.662;151.094;2023-04-24T15:01:38;5.70;;;1.03;;
20792;SDS011;10556;-33.662;151.094;2023-04-24T15:06:41;5.47;;;1.57;;
20792;SDS011;10556;-33.662;151.094;2023-04-24T15:11:42;4.73;;;1.53;;
20792;SDS011;10556;-33.662;151.094;2023-04-24T15:16:43;8.33;;;1.47;;
20792;SDS011;10556;-33.662;151.094;2023-04-24T15:21:47;7.30;;;1.50;;
20792;SDS011;10556;-33.662;151.094;2023-04-24T15:26:48;6.33;;;1.47;;
20792;SDS011;10556;-33.662;151.094;2023-04-24T15:31:49;6.07;;;1.23;;
20792;SDS011;10556;-33.662;151.094;2023-04-24T15:36:52;5.43;;;1.23;;
20792;SDS011;10556;-33.662;151.094;2023-04-24T15:41:53;10.63;;;2.13;;
20792;SDS011;10556;-33.662;151.094;2023-04-24T15:46:54;6.10;;;1.27;;
20792;SDS011;10556;-33.662;151.094;2023-04-24T15:51:58;7.53;;;1.90;;
20792;SDS011;10556;-33.662;151.094;2023-04-24T15:56:59;4.43;;;1.80;;
20792;SDS011;10556;-33.662;151.094;2023-04-24T16:02:00;7.07;;;1.77;;
20792;SDS011;10556;-33.662;151.094;2023-04-24T16:07:03;8.57;;;1.70;;
20792;SDS011;10556;-33.662;151.094;2023-04-24T16:12:04;5.03;;;1.70;;
20792;SDS011;10556;-33.662;151.094;2023-04-24T16:17:06;5.87;;;1.90;;
20792;SDS011;10556;-33.662;151.094;2023-04-24T16:22:09;9.20;;;1.67;;
20792;SDS011;10556;-33.662;151.094;2023-04-24T16:27:10;4.70;;;1.30;;
20792;SDS011;10556;-33.662;151.094;2023-04-24T16:32:11;3.93;;;1.23;;
20792;SDS011;10556;-33.662;151.094;2023-04-24T16:37:14;6.10;;;1.30;;
20792;SDS011;10556;-33.662;151.094;2023-04-24T16:42:15;6.10;;;1.27;;
20792;SDS011;10556;-33.662;151.094;2023-04-24T16:47:17;6.50;;;1.63;;
20792;SDS011;10556;-33.662;151.094;2023-04-24T16:52:20;6.30;;;1.27;;
20792;SDS011;10556;-33.662;151.094;2023-04-24T16:57:21;5.90;;;1.40;;
20792;SDS011;10556;-33.662;151.094;2023-04-24T17:02:23;10.00;;;1.40;;
20792;SDS011;10556;-33.662;151.094;2023-04-24T17:07:26;4.17;;;1.20;;
20792;SDS011;10556;-33.662;151.094;2023-04-24T17:12:27;6.27;;;1.50;;
20792;SDS011;10556;-33.662;151.094;2023-04-24T17:17:28;4.90;;;1.50;;
20792;SDS011;10556;-33.662;151.094;2023-04-24T17:22:31;6.43;;;1.43;;
20792;SDS011;10556;-33.662;151.094;2023-04-24T17:27:33;9.77;;;2.00;;
20792;SDS011;10556;-33.662;151.094;2023-04-24T17:32:34;7.87;;;1.87;;
20792;SDS011;10556;-33.662;151.094;2023-04-24T17:37:38;6.33;;;1.30;;
20792;SDS011;10556;-33.662;151.094;2023-04-24T17:42:39;5.63;;;1.20;;
20792;SDS011;10556;-33.662;151.094;2023-04-24T17:47:41;4.33;;;1.00;;
20792;SDS011;10556;-33.662;151.094;2023-04-24T17:52:46;2.67;;;1.10;;
20792;SDS011;10556;-33.662;151.094;2023-04-24T17:57:48;4.43;;;1.23;;
20792;SDS011;10556;-33.662;151.094;2023-04-24T18:02:49;4.57;;;0.70;;
20792;SDS011;10556;-33.662;151.094;2023-04-24T18:07:52;6.63;;;1.50;;
20792;SDS011;10556;-33.662;151.094;2023-04-24T18:12:53;3.57;;;0.97;;
20792;SDS011;10556;-33.662;151.094;2023-04-24T18:17:55;2.30;;;0.80;;
20792;SDS011;10556;-33.662;151.094;2023-04-24T18:22:58;2.43;;;0.70;;
20792;SDS011;10556;-33.662;151.094;2023-04-24T18:27:59;1.30;;;0.50;;
20792;SDS011;10556;-33.662;151.094;2023-04-24T18:33:00;1.77;;;1.00;;
20792;SDS011;10556;-33.662;151.094;2023-04-24T18:38:03;4.57;;;1.10;;
20792;SDS011;10556;-33.662;151.094;2023-04-24T18:43:05;4.33;;;0.80;;
20792;SDS011;10556;-33.662;151.094;2023-04-24T18:48:06;3.03;;;0.80;;
20792;SDS011;10556;-33.662;151.094;2023-04-24T18:53:09;3.67;;;1.13;;
20792;SDS011;10556;-33.662;151.094;2023-04-24T18:58:10;3.70;;;0.90;;
20792;SDS011;10556;-33.662;151.094;2023-04-24T19:03:11;4.03;;;1.10;;
20792;SDS011;10556;-33.662;151.094;2023-04-24T19:08:14;3.43;;;0.70;;
20792;SDS011;10556;-33.662;151.094;2023-04-24T19:13:16;6.37;;;1.00;;
20792;SDS011;10556;-33.662;151.094;2023-04-24T19:18:17;2.73;;;1.17;;
20792;SDS011;10556;-33.662;151.094;2023-04-24T19:23:20;5.07;;;1.40;;
20792;SDS011;10556;-33.662;151.094;2023-04-24T19:28:21;5.50;;;1.37;;
20792;SDS011;10556;-33.662;151.094;2023-04-24T19:33:22;4.43;;;1.00;;
20792;SDS011;10556;-33.662;151.094;2023-04-24T19:38:26;4.13;;;1.60;;
20792;SDS011;10556;-33.662;151.094;2023-04-24T19:43:27;7.60;;;1.73;;
20792;SDS011;10556;-33.662;151.094;2023-04-24T19:48:28;3.80;;;1.53;;
20792;SDS011;10556;-33.662;151.094;2023-04-24T19:53:31;4.60;;;1.27;;
20792;SDS011;10556;-33.662;151.094;2023-04-24T19:58:32;4.57;;;1.60;;
20792;SDS011;10556;-33.662;151.094;2023-04-24T20:03:34;3.77;;;1.30;;
20792;SDS011;10556;-33.662;151.094;2023-04-24T20:08:37;4.47;;;1.57;;
20792;SDS011;10556;-33.662;151.094;2023-04-24T20:13:38;5.00;;;1.20;;
20792;SDS011;10556;-33.662;151.094;2023-04-24T20:18:39;5.17;;;1.37;;
20792;SDS011;10556;-33.662;151.094;2023-04-24T20:23:42;3.27;;;1.00;;
20792;SDS011;10556;-33.662;151.094;2023-04-24T20:28:44;2.67;;;1.10;;
20792;SDS011;10556;-33.662;151.094;2023-04-24T20:33:45;5.43;;;1.10;;
20792;SDS011;10556;-33.662;151.094;2023-04-24T20:38:48;4.03;;;1.37;;
20792;SDS011;10556;-33.662;151.094;2023-04-24T20:43:49;8.63;;;1.50;;
20792;SDS011;10556;-33.662;151.094;2023-04-24T20:48:50;5.03;;;1.20;;
20792;SDS011;10556;-33.662;151.094;2023-04-24T20:53:54;3.67;;;1.03;;
20792;SDS011;10556;-33.662;151.094;2023-04-24T20:58:55;3.97;;;1.07;;
20792;SDS011;10556;-33.662;151.094;2023-04-24T21:03:56;3.00;;;1.00;;
20792;SDS011;10556;-33.662;151.094;2023-04-24T21:08:59;5.27;;;0.90;;
20792;SDS011;10556;-33.662;151.094;2023-04-24T21:14:00;3.67;;;1.47;;
20792;SDS011;10556;-33.662;151.094;2023-04-24T21:19:01;7.57;;;1.57;;
20792;SDS011;10556;-33.662;151.094;2023-04-24T21:24:05;2.80;;;0.87;;
20792;SDS011;10556;-33.662;151.094;2023-04-24T21:29:06;1.23;;;0.57;;
20792;SDS011;10556;-33.662;151.094;2023-04-24T21:34:07;3.00;;;0.80;;
20792;SDS011;10556;-33.662;151.094;2023-04-24T21:39:10;1.80;;;0.63;;
20792;SDS011;10556;-33.662;151.094;2023-04-24T21:44:11;1.50;;;0.80;;
20792;SDS011;10556;-33.662;151.094;2023-04-24T21:49:13;4.10;;;1.20;;
20792;SDS011;10556;-33.662;151.094;2023-04-24T21:54:16;3.87;;;0.93;;
20792;SDS011;10556;-33.662;151.094;2023-04-24T21:59:17;2.73;;;0.70;;
20792;SDS011;10556;-33.662;151.094;2023-04-24T22:04:18;4.20;;;1.10;;
20792;SDS011;10556;-33.662;151.094;2023-04-24T22:09:21;9.67;;;1.80;;
20792;SDS011;10556;-33.662;151.094;2023-04-24T22:14:23;6.03;;;1.40;;
20792;SDS011;10556;-33.662;151.094;2023-04-24T22:19:24;2.73;;;0.83;;
20792;SDS011;10556;-33.662;151.094;2023-04-24T22:24:27;5.37;;;1.23;;
20792;SDS011;10556;-33.662;151.094;2023-04-24T22:29:29;3.80;;;1.10;;
20792;SDS011;10556;-33.662;151.094;2023-04-24T22:34:30;2.77;;;1.00;;
20792;SDS011;10556;-33.662;151.094;2023-04-24T22:39:33;3.73;;;1.07;;
20792;SDS011;10556;-33.662;151.094;2023-04-24T22:44:35;7.43;;;1.97;;
20792;SDS011;10556;-33.662;151.094;2023-04-24T22:49:36;2.60;;;0.93;;
20792;SDS011;10556;-33.662;151.094;2023-04-24T22:54:39;2.17;;;0.63;;
20792;SDS011;10556;-33.662;151.094;2023-04-24T22:59:40;7.00;;;1.40;;
20792;SDS011;10556;-33.662;151.094;2023-04-24T23:04:41;6.63;;;1.37;;
20792;SDS011;10556;-33.662;151.094;2023-04-24T23:09:44;10.77;;;1.67;;
20792;SDS011;10556;-33.662;151.094;2023-04-24T23:14:46;6.40;;;1.30;;
20792;SDS011;10556;-33.662;151.094;2023-04-24T23:19:47;12.97;;;1.57;;
20792;SDS011;10556;-33.662;151.094;2023-04-24T23:24:50;11.50;;;2.30;;
20792;SDS011;10556;-33.662;151.094;2023-04-24T23:29:51;5.87;;;1.30;;
20792;SDS011;10556;-33.662;151.094;2023-04-24T23:34:52;11.83;;;1.87;;
20792;SDS011;10556;-33.662;151.094;2023-04-24T23:39:55;8.90;;;1.50;;
20792;SDS011;10556;-33.662;151.094;2023-04-24T23:44:57;7.27;;;1.33;;
20792;SDS011;10556;-33.662;151.094;2023-04-24T23:49:58;9.53;;;1.90;;
20792;SDS011;10556;-33.662;151.094;2023-04-24T23:55:01;6.83;;;1.27;;
